createdAt,value
2022-09-26T00:01:32.566Z,66.61
2022-09-26T00:04:07.826Z,66.82
2022-09-26T00:06:36.013Z,67.14
2022-09-26T00:09:03.986Z,67.21
2022-09-26T00:11:34.619Z,67.98
2022-09-26T00:14:05.406Z,69.46
2022-09-26T00:16:33.955Z,68.56
2022-09-26T00:19:02.426Z,68.72
2022-09-26T00:21:31.332Z,68.86
2022-09-26T00:24:00.552Z,69.06
2022-09-26T00:26:30.276Z,68.32
2022-09-26T00:29:00.390Z,68.17
2022-09-26T00:31:30.429Z,69.10
2022-09-26T00:33:59.151Z,69.57
2022-09-26T00:36:37.555Z,68.78
2022-09-26T00:39:07.961Z,69.87
2022-09-26T00:41:36.802Z,69.87
2022-09-26T00:44:38.097Z,69.53
2022-09-26T00:47:07.886Z,69.48
2022-09-26T00:49:38.650Z,69.56
2022-09-26T00:52:11.038Z,69.48
2022-09-26T00:54:42.561Z,68.93
2022-09-26T00:57:13.282Z,69.88
2022-09-26T00:59:46.648Z,69.43
2022-09-26T01:02:15.109Z,68.56
2022-09-26T01:04:45.444Z,67.98
2022-09-26T01:07:18.085Z,67.90
2022-09-26T01:09:47.535Z,67.52
2022-09-26T01:12:16.888Z,68.06
2022-09-26T01:14:49.472Z,68.31
2022-09-26T01:17:17.861Z,68.58
2022-09-26T01:20:00.380Z,68.74
2022-09-26T01:22:59.826Z,70.11
2022-09-26T01:25:39.826Z,69.36
2022-09-26T01:28:24.476Z,69.55
2022-09-26T01:31:02.415Z,68.79
2022-09-26T01:33:58.416Z,69.34
2022-09-26T01:36:49.700Z,69.45
2022-09-26T01:39:32.541Z,69.21
2022-09-26T01:42:10.637Z,69.43
2022-09-26T01:44:42.900Z,68.95
2022-09-26T01:47:18.033Z,68.21
2022-09-26T01:49:53.881Z,68.03
2022-09-26T01:52:33.507Z,67.97
2022-09-26T01:55:08.238Z,68.13
2022-09-26T01:57:45.373Z,67.28
2022-09-26T02:00:14.066Z,67.52
2022-09-26T02:02:48.474Z,67.04
2022-09-26T02:05:23.878Z,67.31
2022-09-26T02:07:56.817Z,67.85
2022-09-26T02:10:29.774Z,67.49
2022-09-26T02:13:03.973Z,66.81
2022-09-26T02:15:35.753Z,66.62
2022-09-26T02:18:12.661Z,66.46
2022-09-26T02:20:45.950Z,66.72
2022-09-26T02:23:13.832Z,66.67
2022-09-26T02:25:41.732Z,66.11
2022-09-26T02:28:09.901Z,65.83
2022-09-26T02:30:39.284Z,65.69
2022-09-26T02:33:09.081Z,65.75
2022-09-26T02:35:55.285Z,65.76
2022-09-26T02:38:26.430Z,65.87
2022-09-26T02:41:10.978Z,65.58
2022-09-26T02:43:45.594Z,66.12
2022-09-26T02:46:39.732Z,65.74
2022-09-26T02:49:22.343Z,66.53
2022-09-26T02:52:18.289Z,66.38
2022-09-26T02:54:58.842Z,66.47
2022-09-26T02:57:40.687Z,66.90
2022-09-26T03:00:13.350Z,67.15
2022-09-26T03:02:51.559Z,67.71
2022-09-26T03:05:24.423Z,67.48
2022-09-26T03:07:57.699Z,67.13
2022-09-26T03:10:29.266Z,67.61
2022-09-26T03:13:02.406Z,67.91
2022-09-26T03:15:32.154Z,67.79
2022-09-26T03:18:01.538Z,67.59
2022-09-26T03:20:31.065Z,67.23
2022-09-26T03:22:59.050Z,67.21
2022-09-26T03:25:28.851Z,67.29
2022-09-26T03:28:05.713Z,67.40
2022-09-26T03:30:34.853Z,66.62
2022-09-26T03:33:21.718Z,67.20
2022-09-26T03:35:51.714Z,67.92
2022-09-26T03:38:21.265Z,67.52
2022-09-26T03:40:55.223Z,67.81
2022-09-26T03:43:44.028Z,67.64
2022-09-26T03:46:13.612Z,66.99
2022-09-26T03:48:41.568Z,66.82
2022-09-26T03:51:13.133Z,67.03
2022-09-26T03:53:43.093Z,67.38
2022-09-26T03:56:16.197Z,67.80
2022-09-26T03:58:44.702Z,67.10
2022-09-26T04:01:14.943Z,67.01
2022-09-26T04:03:50.312Z,67.46
2022-09-26T04:06:21.126Z,68.28
2022-09-26T04:08:53.000Z,68.88
2022-09-26T04:11:23.071Z,68.45
2022-09-26T04:13:53.216Z,68.33
2022-09-26T04:16:24.553Z,68.11
2022-09-26T04:19:04.898Z,67.98
2022-09-26T04:21:34.735Z,68.32
2022-09-26T04:24:03.672Z,67.76
2022-09-26T04:26:31.885Z,68.07
2022-09-26T04:29:00.411Z,68.23
2022-09-26T04:31:53.697Z,68.08
2022-09-26T04:34:27.500Z,68.53
2022-09-26T04:36:59.208Z,68.95
2022-09-26T04:39:27.018Z,69.33
2022-09-26T04:41:55.346Z,69.16
2022-09-26T04:44:23.236Z,70.30
2022-09-26T04:46:51.345Z,70.80
2022-09-26T04:49:21.658Z,70.15
2022-09-26T04:51:49.738Z,69.88
2022-09-26T04:54:19.085Z,69.18
2022-09-26T04:56:47.703Z,68.84
2022-09-26T04:59:15.707Z,69.14
2022-09-26T05:01:56.570Z,68.71
2022-09-26T05:04:31.818Z,69.73
2022-09-26T05:07:00.145Z,70.51
2022-09-26T05:09:35.856Z,69.61
2022-09-26T05:12:18.207Z,69.59
2022-09-26T05:14:49.834Z,69.63
2022-09-26T05:17:17.795Z,70.20
2022-09-26T05:19:48.029Z,70.08
2022-09-26T05:22:30.754Z,70.88
2022-09-26T05:25:29.100Z,70.42
2022-09-26T05:27:57.044Z,70.46
2022-09-26T05:30:26.118Z,70.79
2022-09-26T05:32:54.977Z,70.72
2022-09-26T05:35:23.735Z,70.99
2022-09-26T05:37:59.764Z,71.36
2022-09-26T05:40:48.075Z,70.33
2022-09-26T05:43:16.372Z,70.22
2022-09-26T05:45:49.284Z,70.66
2022-09-26T05:48:20.836Z,70.12
2022-09-26T05:50:49.242Z,69.89
2022-09-26T05:53:17.076Z,69.68
2022-09-26T05:55:50.086Z,69.35
2022-09-26T05:58:39.193Z,69.08
2022-09-26T06:01:20.037Z,69.00
2022-09-26T06:03:55.908Z,69.02
2022-09-26T06:06:29.811Z,68.66
2022-09-26T06:09:07.462Z,67.85
2022-09-26T06:11:55.267Z,68.24
2022-09-26T06:14:24.492Z,67.23
2022-09-26T06:16:52.497Z,66.99
2022-09-26T06:19:23.086Z,66.30
2022-09-26T06:21:51.563Z,65.91
2022-09-26T06:24:20.554Z,65.85
2022-09-26T06:26:51.529Z,65.65
2022-09-26T06:29:21.364Z,64.89
2022-09-26T06:31:50.795Z,65.24
2022-09-26T06:34:38.872Z,65.56
2022-09-26T06:37:26.989Z,65.77
2022-09-26T06:39:59.247Z,66.85
2022-09-26T06:42:27.652Z,66.11
2022-09-26T06:45:19.368Z,67.22
2022-09-26T06:48:07.598Z,67.71
2022-09-26T06:50:55.477Z,67.52
2022-09-26T06:53:23.628Z,66.89
2022-09-26T06:55:51.681Z,67.64
2022-09-26T06:58:19.868Z,66.58
2022-09-26T07:01:18.620Z,66.68
2022-09-26T07:04:09.018Z,67.20
2022-09-26T07:06:45.578Z,66.73
2022-09-26T07:09:14.283Z,67.22
2022-09-26T07:12:13.067Z,66.73
2022-09-26T07:14:37.647Z,65.84
2022-09-26T07:17:16.660Z,66.79
2022-09-26T07:19:52.529Z,67.41
2022-09-26T07:22:52.461Z,66.12
2022-09-26T07:25:20.761Z,65.91
2022-09-26T07:27:51.936Z,64.65
2022-09-26T07:30:23.436Z,65.45
2022-09-26T07:33:04.555Z,65.27
2022-09-26T07:35:37.879Z,64.19
2022-09-26T07:38:06.167Z,63.91
2022-09-26T07:40:34.354Z,63.47
2022-09-26T07:43:21.294Z,63.88
2022-09-26T07:46:12.478Z,64.32
2022-09-26T07:49:02.520Z,64.68
2022-09-26T07:51:49.676Z,64.43
2022-09-26T07:54:21.192Z,64.48
2022-09-26T07:56:49.059Z,64.56
2022-09-26T07:59:35.828Z,64.61
2022-09-26T08:02:22.747Z,64.25
2022-09-26T08:04:57.615Z,63.88
2022-09-26T08:07:28.605Z,64.66
2022-09-26T08:10:19.282Z,64.80
2022-09-26T08:13:22.591Z,64.90
2022-09-26T08:16:09.394Z,64.37
2022-09-26T08:18:42.022Z,63.19
2022-09-26T08:21:11.346Z,63.43
2022-09-26T08:23:39.416Z,64.49
2022-09-26T08:26:43.896Z,64.01
2022-09-26T08:29:25.246Z,63.93
2022-09-26T08:31:55.326Z,63.88
2022-09-26T08:34:25.531Z,63.59
2022-09-26T08:37:15.228Z,63.57
2022-09-26T08:40:03.468Z,63.13
2022-09-26T08:43:02.654Z,61.69
2022-09-26T08:46:32.113Z,60.49
2022-09-26T08:50:02.692Z,58.18
2022-09-26T08:52:38.655Z,57.05
2022-09-26T08:55:13.950Z,53.17
2022-09-26T08:57:45.437Z,55.18
2022-09-26T09:00:21.520Z,50.06
2022-09-26T09:03:13.928Z,51.16
2022-09-26T09:05:46.804Z,49.04
2022-09-26T09:08:22.165Z,51.79
2022-09-26T09:11:18.920Z,52.96
2022-09-26T09:14:02.912Z,49.00
2022-09-26T09:17:10.638Z,46.36
2022-09-26T09:20:10.186Z,44.25
2022-09-26T09:23:10.828Z,33.13
2022-09-26T09:25:49.321Z,31.18
2022-09-26T09:28:34.523Z,37.08
2022-09-26T09:31:05.447Z,45.63
2022-09-26T09:33:57.522Z,48.49
2022-09-26T09:36:42.941Z,50.65
2022-09-26T09:39:34.351Z,48.44
2022-09-26T09:42:11.182Z,40.18
2022-09-26T09:44:47.006Z,41.61
2022-09-26T09:47:17.366Z,46.31
2022-09-26T09:49:47.800Z,53.16
2022-09-26T09:52:31.704Z,53.82
2022-09-26T09:55:14.526Z,53.60
2022-09-26T09:57:58.958Z,55.04
2022-09-26T10:00:28.399Z,56.95
2022-09-26T10:03:16.331Z,58.14
2022-09-26T10:05:47.085Z,55.71
2022-09-26T10:08:31.421Z,53.90
2022-09-26T10:11:22.386Z,46.75
2022-09-26T10:14:16.817Z,45.40
2022-09-26T10:17:20.492Z,40.10
2022-09-26T10:19:51.961Z,40.53
2022-09-26T10:22:26.382Z,43.04
2022-09-26T10:25:01.715Z,42.98
2022-09-26T10:27:37.794Z,48.47
2022-09-26T10:30:25.767Z,51.23
2022-09-26T10:32:59.261Z,48.60
2022-09-26T10:35:48.426Z,46.09
2022-09-26T10:38:22.049Z,45.75
2022-09-26T10:41:23.604Z,44.59
2022-09-26T10:43:55.553Z,43.25
2022-09-26T10:46:53.305Z,41.45
2022-09-26T10:49:45.834Z,43.16
2022-09-26T10:52:37.769Z,42.33
2022-09-26T10:55:11.434Z,45.46
2022-09-26T10:57:45.298Z,48.61
2022-09-26T11:00:19.577Z,50.93
2022-09-26T11:02:51.910Z,50.91
2022-09-26T11:05:39.131Z,50.88
2022-09-26T11:08:14.219Z,50.94
2022-09-26T11:11:11.221Z,49.97
2022-09-26T11:13:48.121Z,49.04
2022-09-26T11:16:20.267Z,49.43
2022-09-26T11:19:06.796Z,47.56
2022-09-26T11:21:43.547Z,47.73
2022-09-26T11:24:19.622Z,44.64
2022-09-26T11:26:59.709Z,41.87
2022-09-26T11:29:39.797Z,42.51
2022-09-26T11:32:17.275Z,44.10
2022-09-26T11:35:02.392Z,45.06
2022-09-26T11:38:03.536Z,45.38
2022-09-26T11:40:44.402Z,46.58
2022-09-26T11:43:32.185Z,47.74
2022-09-26T11:46:23.031Z,47.92
2022-09-26T11:49:36.472Z,48.02
2022-09-26T11:52:52.801Z,42.31
2022-09-26T11:55:31.077Z,43.43
2022-09-26T11:58:06.881Z,41.90
2022-09-26T12:00:45.930Z,42.58
2022-09-26T12:03:33.399Z,43.58
2022-09-26T12:06:13.766Z,44.05
2022-09-26T12:09:01.847Z,41.23
2022-09-26T12:11:40.236Z,40.41
2022-09-26T12:14:19.476Z,38.75
2022-09-26T12:16:55.182Z,44.74
2022-09-26T12:19:32.487Z,46.52
2022-09-26T12:22:27.329Z,46.08
2022-09-26T12:25:14.547Z,47.68
2022-09-26T12:27:52.992Z,46.15
2022-09-26T12:30:26.178Z,46.52
2022-09-26T12:33:20.934Z,46.60
2022-09-26T12:35:54.085Z,48.56
2022-09-26T12:38:35.707Z,48.22
2022-09-26T12:41:28.982Z,48.00
2022-09-26T12:44:31.362Z,48.58
2022-09-26T12:47:15.356Z,45.92
2022-09-26T12:49:57.186Z,47.66
2022-09-26T12:52:39.539Z,44.06
2022-09-26T12:55:19.129Z,43.54
2022-09-26T12:58:01.735Z,44.18
2022-09-26T13:00:36.917Z,43.59
2022-09-26T13:03:42.761Z,45.37
2022-09-26T13:06:31.591Z,46.01
2022-09-26T13:09:11.275Z,45.62
2022-09-26T13:11:50.801Z,43.70
2022-09-26T13:14:39.553Z,45.14
2022-09-26T13:17:13.880Z,47.53
2022-09-26T13:19:48.653Z,48.46
2022-09-26T13:22:27.368Z,49.00
2022-09-26T13:25:03.388Z,49.87
2022-09-26T13:27:38.389Z,48.70
2022-09-26T13:30:16.925Z,46.66
2022-09-26T13:32:54.993Z,46.84
2022-09-26T13:35:24.836Z,46.55
2022-09-26T13:38:30.381Z,49.62
2022-09-26T13:41:05.081Z,49.77
2022-09-26T13:43:47.558Z,48.72
2022-09-26T13:46:27.121Z,47.56
2022-09-26T13:49:01.285Z,46.32
2022-09-26T13:51:40.123Z,44.98
2022-09-26T13:54:19.932Z,43.21
2022-09-26T13:56:49.665Z,46.11
2022-09-26T13:59:48.893Z,45.93
2022-09-26T14:02:25.017Z,47.18
2022-09-26T14:04:54.283Z,46.50
2022-09-26T14:07:45.057Z,46.62
2022-09-26T14:10:35.305Z,45.91
2022-09-26T14:13:18.285Z,47.34
2022-09-26T14:16:03.771Z,46.75
2022-09-26T14:18:47.284Z,48.52
2022-09-26T14:21:32.938Z,48.17
2022-09-26T14:24:27.782Z,48.06
2022-09-26T14:27:03.489Z,46.94
2022-09-26T14:29:44.663Z,49.01
2022-09-26T14:32:17.924Z,49.98
2022-09-26T14:34:49.353Z,49.07
2022-09-26T14:37:31.238Z,48.37
2022-09-26T14:40:16.193Z,48.47
2022-09-26T14:42:51.826Z,46.52
2022-09-26T14:45:24.516Z,46.16
2022-09-26T14:48:01.251Z,46.67
2022-09-26T14:50:34.492Z,47.99
2022-09-26T14:53:11.396Z,50.07
2022-09-26T14:55:54.359Z,49.68
2022-09-26T14:58:31.923Z,50.11
2022-09-26T15:01:05.033Z,49.47
2022-09-26T15:03:35.025Z,49.24
2022-09-26T15:06:08.906Z,49.33
2022-09-26T15:08:39.352Z,49.50
2022-09-26T15:11:08.108Z,48.48
2022-09-26T15:13:39.373Z,48.65
2022-09-26T15:16:24.611Z,49.37
2022-09-26T15:18:56.914Z,50.69
2022-09-26T15:21:33.029Z,50.15
2022-09-26T15:24:04.059Z,51.11
2022-09-26T15:26:34.511Z,51.08
2022-09-26T15:29:06.439Z,50.44
2022-09-26T15:31:40.502Z,49.91
2022-09-26T15:34:16.376Z,50.09
2022-09-26T15:36:48.876Z,50.74
2022-09-26T15:39:39.017Z,50.33
2022-09-26T15:42:48.042Z,50.41
2022-09-26T15:45:29.969Z,50.51
2022-09-26T15:47:59.850Z,51.12
2022-09-26T15:50:32.571Z,50.91
2022-09-26T15:53:08.111Z,50.91
2022-09-26T15:55:40.568Z,51.08
2022-09-26T15:58:10.885Z,51.91
2022-09-26T16:00:43.190Z,51.74
2022-09-26T16:03:37.126Z,52.54
2022-09-26T16:06:14.564Z,52.46
2022-09-26T16:08:43.819Z,51.90
2022-09-26T16:11:11.708Z,53.38
2022-09-26T16:13:49.170Z,52.85
2022-09-26T16:16:20.007Z,53.34
2022-09-26T16:18:55.251Z,54.86
2022-09-26T16:21:25.809Z,55.48
2022-09-26T16:23:57.779Z,55.23
2022-09-26T16:26:31.955Z,54.61
2022-09-26T16:29:00.734Z,56.11
2022-09-26T16:31:34.431Z,55.61
2022-09-26T16:34:06.953Z,55.39
2022-09-26T16:36:35.634Z,55.68
2022-09-26T16:39:07.398Z,56.37
2022-09-26T16:44:34.910Z,56.27
2022-09-26T16:47:06.124Z,55.62
2022-09-26T16:49:46.098Z,56.32
2022-09-26T16:52:28.449Z,56.15
2022-09-26T16:54:59.255Z,56.04
2022-09-26T16:57:30.120Z,57.03
2022-09-26T17:00:15.059Z,56.87
2022-09-26T17:02:43.383Z,57.21
2022-09-26T17:05:18.405Z,57.33
2022-09-26T17:07:47.800Z,57.27
2022-09-26T17:10:18.307Z,57.35
2022-09-26T17:12:50.729Z,57.23
2022-09-26T17:15:23.181Z,57.64
2022-09-26T17:17:53.696Z,58.10
2022-09-26T17:20:22.532Z,59.08
2022-09-26T17:22:50.356Z,58.85
2022-09-26T17:25:19.960Z,59.18
2022-09-26T17:27:53.188Z,59.63
2022-09-26T17:30:21.565Z,59.84
2022-09-26T17:32:52.729Z,60.79
2022-09-26T17:35:25.882Z,59.95
2022-09-26T17:37:53.913Z,59.58
2022-09-26T17:40:25.122Z,59.69
2022-09-26T17:42:55.445Z,59.80
2022-09-26T17:45:28.601Z,59.88
2022-09-26T17:47:58.817Z,59.74
2022-09-26T17:50:29.892Z,59.67
2022-09-26T17:52:58.887Z,60.10
2022-09-26T17:55:29.216Z,59.91
2022-09-26T17:57:58.379Z,60.30
2022-09-26T18:00:26.688Z,60.50
2022-09-26T18:02:59.709Z,61.64
2022-09-26T18:05:31.684Z,61.65
2022-09-26T18:08:02.645Z,62.46
2022-09-26T18:10:34.467Z,63.08
2022-09-26T18:13:12.098Z,62.18
2022-09-26T18:15:41.588Z,62.56
2022-09-26T18:18:14.345Z,61.94
2022-09-26T18:20:42.300Z,62.00
2022-09-26T18:23:15.735Z,61.69
2022-09-26T18:25:47.107Z,62.33
2022-09-26T18:28:17.318Z,62.24
2022-09-26T18:30:48.265Z,62.19
2022-09-26T18:33:19.301Z,61.42
2022-09-26T18:35:49.260Z,61.05
2022-09-26T18:38:17.527Z,61.77
2022-09-26T18:40:51.754Z,62.05
2022-09-26T18:43:22.466Z,62.18
2022-09-26T18:45:50.988Z,61.73
2022-09-26T18:48:24.093Z,61.98
2022-09-26T18:50:54.070Z,62.47
2022-09-26T18:53:23.906Z,62.29
2022-09-26T18:56:11.061Z,62.18
2022-09-26T18:58:39.530Z,62.36
2022-09-26T19:01:12.047Z,62.91
2022-09-26T19:03:42.443Z,62.86
2022-09-26T19:06:16.086Z,61.76
2022-09-26T19:08:46.008Z,61.59
2022-09-26T19:11:17.985Z,62.06
2022-09-26T19:13:47.964Z,61.64
2022-09-26T19:16:16.674Z,61.58
2022-09-26T19:18:45.254Z,61.95
2022-09-26T19:21:21.083Z,61.59
2022-09-26T19:23:50.458Z,61.85
2022-09-26T19:26:27.456Z,61.24
2022-09-26T19:28:57.824Z,60.79
2022-09-26T19:31:26.347Z,60.57
2022-09-26T19:33:54.686Z,60.29
2022-09-26T19:36:22.973Z,60.28
2022-09-26T19:38:50.876Z,60.19
2022-09-26T19:41:18.943Z,60.10
2022-09-26T19:43:48.141Z,59.89
2022-09-26T19:46:23.123Z,59.73
2022-09-26T19:48:51.478Z,60.16
2022-09-26T19:51:19.388Z,60.46
2022-09-26T19:53:47.212Z,60.38
2022-09-26T19:56:15.117Z,59.55
2022-09-26T19:58:46.262Z,59.45
2022-09-26T20:01:19.162Z,59.96
2022-09-26T20:03:47.239Z,59.58
2022-09-26T20:06:18.176Z,59.31
2022-09-26T20:08:46.046Z,59.49
2022-09-26T20:11:13.890Z,58.58
2022-09-26T20:13:59.661Z,59.03
2022-09-26T20:16:29.254Z,58.40
2022-09-26T20:18:58.035Z,57.88
2022-09-26T20:21:28.547Z,57.63
2022-09-26T20:23:59.112Z,57.12
2022-09-26T20:26:29.507Z,57.09
2022-09-26T20:28:58.468Z,56.81
2022-09-26T20:31:28.151Z,56.51
2022-09-26T20:33:59.224Z,57.08
2022-09-26T20:36:29.910Z,56.52
2022-09-26T20:39:02.729Z,56.54
2022-09-26T20:41:34.063Z,55.91
2022-09-26T20:44:05.839Z,55.63
2022-09-26T20:46:36.836Z,56.23
2022-09-26T20:49:08.709Z,55.34
2022-09-26T20:51:36.660Z,55.67
2022-09-26T20:54:06.647Z,55.95
2022-09-26T20:56:34.700Z,55.63
2022-09-26T20:59:02.565Z,56.04
2022-09-26T21:01:30.436Z,56.93
2022-09-26T21:03:58.635Z,56.43
2022-09-26T21:06:33.968Z,56.35
2022-09-26T21:09:02.670Z,56.52
2022-09-26T21:11:30.516Z,56.75
2022-09-26T21:13:58.434Z,56.59
2022-09-26T21:16:26.977Z,56.90
2022-09-26T21:18:55.127Z,56.95
2022-09-26T21:21:25.415Z,57.32
2022-09-26T21:24:06.949Z,57.48
2022-09-26T21:26:34.805Z,58.02
2022-09-26T21:29:03.904Z,57.92
2022-09-26T21:31:35.313Z,58.44
2022-09-26T21:34:03.942Z,58.52
2022-09-26T21:36:36.312Z,58.09
2022-09-26T21:39:06.177Z,58.62
2022-09-26T21:41:34.756Z,59.29
2022-09-26T21:44:09.023Z,58.87
2022-09-26T21:46:36.871Z,58.65
2022-09-26T21:49:04.860Z,58.25
2022-09-26T21:51:32.993Z,58.11
2022-09-26T21:54:05.611Z,58.77
2022-09-26T21:56:38.815Z,58.68
2022-09-26T21:59:07.958Z,59.28
2022-09-26T22:01:35.842Z,59.24
2022-09-26T22:04:03.664Z,59.21
2022-09-26T22:06:31.668Z,59.08
2022-09-26T22:08:59.567Z,58.80
2022-09-26T22:11:27.470Z,59.39
2022-09-26T22:13:56.695Z,59.50
2022-09-26T22:16:25.396Z,60.10
2022-09-26T22:18:53.217Z,60.11
2022-09-26T22:21:21.138Z,59.17
2022-09-26T22:23:50.456Z,59.76
2022-09-26T22:26:18.847Z,59.43
2022-09-26T22:28:46.852Z,59.62
2022-09-26T22:31:20.027Z,59.88
2022-09-26T22:33:48.043Z,60.18
2022-09-26T22:36:16.321Z,60.71
2022-09-26T22:38:45.187Z,60.32
2022-09-26T22:41:13.080Z,59.47
2022-09-26T22:43:40.944Z,59.58
2022-09-26T22:46:10.406Z,59.87
2022-09-26T22:48:41.866Z,60.09
2022-09-26T22:51:10.646Z,59.92
2022-09-26T22:53:40.222Z,59.61
2022-09-26T22:56:08.678Z,59.14
2022-09-26T22:58:40.547Z,58.88
2022-09-26T23:01:10.580Z,60.34
2022-09-26T23:03:40.745Z,60.31
2022-09-26T23:06:09.476Z,59.98
2022-09-26T23:08:38.005Z,60.11
2022-09-26T23:11:07.777Z,59.79
2022-09-26T23:13:36.390Z,59.07
2022-09-26T23:16:06.191Z,58.85
2022-09-26T23:18:35.555Z,58.97
2022-09-26T23:21:09.281Z,58.79
2022-09-26T23:23:37.852Z,58.36
2022-09-26T23:26:07.081Z,58.25
2022-09-26T23:28:35.407Z,58.64
2022-09-26T23:31:07.866Z,59.49
2022-09-26T23:33:36.282Z,59.00
2022-09-26T23:36:05.439Z,59.08
2022-09-26T23:38:36.169Z,58.55
2022-09-26T23:41:05.080Z,59.15
2022-09-26T23:43:32.903Z,58.76
2022-09-26T23:46:01.073Z,59.06
2022-09-26T23:48:29.019Z,58.92
2022-09-26T23:50:57.716Z,59.52
2022-09-26T23:53:25.818Z,58.77
2022-09-26T23:56:03.828Z,58.41
2022-09-26T23:58:31.676Z,57.87
